Time;durP1;ratioP1;P1;durP2;ratioP2;P2;SDS_P1;SDS_P2;PMS_P1;PMS_P2;Temp;Humidity;BMP_temperature;BMP_pressure;BME280_temperature;BME280_humidity;BME280_pressure;Samples;Min_cycle;Max_cycle;Signal;HPM_P1;HPM_P2
2022/08/24 00:01:26;;;;;;;5.87;4.47;;;;;;;20.72;76.02;99717.59;4449773;32;34142;-83
2022/08/24 00:03:58;;;;;;;6.35;5.05;;;;;;;20.96;74.81;99721.94;4438607;32;33174;-83
2022/08/24 00:06:27;;;;;;;7.15;5.35;;;;;;;20.41;77.66;99726.66;4439405;32;34375;-70
2022/08/24 00:08:56;;;;;;;6.78;5.32;;;;;;;20.86;75.40;99720.25;4452135;32;34118;-71
2022/08/24 00:11:24;;;;;;;8.90;4.97;;;;;;;20.88;75.33;99724.34;4452149;32;33394;-71
2022/08/24 00:13:52;;;;;;;7.45;5.70;;;;;;;20.74;75.70;99726.37;4451878;32;34007;-70
2022/08/24 00:16:20;;;;;;;6.70;4.72;;;;;;;20.74;76.20;99731.91;4453238;32;34199;-70
2022/08/24 00:18:48;;;;;;;6.25;4.72;;;;;;;20.93;75.09;99730.81;4456185;32;34611;-84
2022/08/24 00:21:16;;;;;;;8.50;5.22;;;;;;;20.96;74.89;99713.66;4470606;32;33555;-82
2022/08/24 00:23:45;;;;;;;7.87;5.57;;;;;;;20.64;76.39;99719.19;4471046;32;34787;-84
2022/08/24 00:26:13;;;;;;;8.20;5.75;;;;;;;20.72;76.52;99720.38;4456933;32;34099;-83
2022/08/24 00:28:40;;;;;;;7.55;5.35;;;;;;;20.69;76.39;99716.31;4470725;32;34783;-70
2022/08/24 00:31:08;;;;;;;7.45;5.82;;;;;;;20.77;76.20;99716.66;4456936;32;34241;-83
2022/08/24 00:33:36;;;;;;;7.07;5.35;;;;;;;20.80;76.18;99710.50;4456735;32;34677;-83
2022/08/24 00:36:04;;;;;;;7.90;5.90;;;;;;;20.38;78.29;99718.22;4456582;32;34015;-70
2022/08/24 00:38:34;;;;;;;6.75;5.57;;;;;;;20.76;76.15;99713.09;4471120;32;34710;-84
2022/08/24 00:41:03;;;;;;;8.05;5.85;;;;;;;20.55;77.25;99711.97;4470891;32;34130;-70
2022/08/24 00:43:31;;;;;;;7.53;5.47;;;;;;;20.53;77.44;99706.78;4470827;32;33750;-70
2022/08/24 00:46:08;;;;;;;7.65;5.68;;;;;;;20.68;76.77;99708.34;4470747;32;34974;-71
2022/08/24 00:48:39;;;;;;;7.40;5.95;;;;;;;20.63;77.29;99714.00;4470345;32;34703;-84
2022/08/24 00:51:38;;;;;;;7.15;5.68;;;;;;;20.58;77.34;99716.88;4470854;32;34415;-70
2022/08/24 00:54:11;;;;;;;7.90;5.75;;;;;;;20.75;76.50;99713.41;4440590;32;33912;-70
2022/08/24 00:56:45;;;;;;;7.68;5.53;;;;;;;20.19;78.82;99721.16;4456689;32;33967;-70
2022/08/24 00:59:18;;;;;;;8.30;6.18;;;;;;;20.20;79.13;99720.03;4456576;32;34503;-70
2022/08/24 01:01:47;;;;;;;7.65;5.57;;;;;;;20.21;79.53;99711.44;4456749;32;33508;-84
2022/08/24 01:04:20;;;;;;;12.43;6.70;;;;;;;20.43;78.27;99715.31;4470412;32;33902;-80
2022/08/24 01:06:48;;;;;;;8.30;5.62;;;;;;;20.46;78.56;99709.19;4443846;32;34092;-71
2022/08/24 01:09:16;;;;;;;8.55;6.22;;;;;;;20.65;77.37;99693.25;4456675;32;33542;-75
2022/08/24 01:11:45;;;;;;;7.55;6.20;;;;;;;20.16;79.92;99694.25;4470373;32;33528;-70
2022/08/24 01:14:13;;;;;;;8.80;6.47;;;;;;;20.47;78.00;99706.13;4456818;32;33782;-69
2022/08/24 01:19:35;;;;;;;9.38;6.85;;;;;;;20.70;76.98;99700.56;4470255;32;33863;-71
2022/08/24 01:22:33;;;;;;;8.98;6.72;;;;;;;19.94;81.02;99695.06;4456591;32;34141;-70
2022/08/24 01:25:01;;;;;;;9.20;6.53;;;;;;;19.95;81.54;99700.25;4456483;32;33916;-70
2022/08/24 01:27:28;;;;;;;8.07;6.40;;;;;;;20.39;78.94;99706.03;4470219;32;34287;-70
2022/08/24 01:29:59;;;;;;;8.90;6.22;;;;;;;20.14;80.07;99708.31;4455827;32;33172;-84
2022/08/24 01:32:26;;;;;;;8.60;6.80;;;;;;;20.02;81.28;99711.66;4456591;32;34285;-69
2022/08/24 01:34:55;;;;;;;10.18;6.78;;;;;;;20.03;80.94;99713.28;4468965;32;34057;-82
2022/08/24 01:37:23;;;;;;;9.02;6.37;;;;;;;20.27;80.26;99723.16;4454843;32;35057;-70
2022/08/24 01:39:53;;;;;;;9.48;6.82;;;;;;;20.51;78.36;99722.81;4427934;32;33898;-70
2022/08/24 01:42:21;;;;;;;8.15;6.35;;;;;;;20.41;78.71;99712.06;4440893;32;33532;-70
2022/08/24 01:44:48;;;;;;;9.05;6.07;;;;;;;20.21;79.61;99716.97;4455076;32;33808;-80
2022/08/24 01:47:16;;;;;;;8.73;6.45;;;;;;;20.53;78.26;99720.56;4454974;32;33981;-70
2022/08/24 01:49:46;;;;;;;8.18;6.28;;;;;;;20.37;78.86;99725.66;4428115;32;34353;-75
2022/08/24 01:52:17;;;;;;;9.07;6.95;;;;;;;20.76;77.34;99734.34;4440938;32;34221;-69
2022/08/24 01:54:45;;;;;;;9.57;6.62;;;;;;;20.15;80.39;99734.75;4454733;32;34031;-80
2022/08/24 01:57:15;;;;;;;9.18;6.37;;;;;;;20.23;79.71;99733.97;4441404;32;34189;-70
2022/08/24 01:59:43;;;;;;;8.45;6.05;;;;;;;20.33;79.32;99737.62;4454727;32;33828;-70
2022/08/24 02:02:17;;;;;;;9.82;7.12;;;;;;;20.58;78.00;99734.25;4455070;32;34174;-83
2022/08/24 02:04:45;;;;;;;8.80;6.83;;;;;;;20.06;80.80;99742.13;4455637;32;33981;-69
2022/08/24 02:07:12;;;;;;;10.32;7.15;;;;;;;20.63;77.62;99739.63;4470323;32;34153;-70
2022/08/24 02:09:40;;;;;;;8.48;6.20;;;;;;;20.42;78.50;99742.06;4469989;32;33766;-73
2022/08/24 02:12:08;;;;;;;8.38;6.53;;;;;;;20.77;77.22;99747.78;4470201;32;34155;-70
2022/08/24 02:14:36;;;;;;;9.90;7.03;;;;;;;20.72;76.96;99739.66;4456422;32;33978;-83
2022/08/24 02:17:05;;;;;;;9.32;6.40;;;;;;;20.60;77.75;99740.25;4470322;32;33885;-83
2022/08/24 02:19:34;;;;;;;11.90;7.12;;;;;;;20.83;76.41;99743.78;4469916;32;34651;-82
2022/08/24 02:22:35;;;;;;;9.52;6.97;;;;;;;20.86;76.28;99740.41;4455204;32;33063;-84
2022/08/24 02:25:04;;;;;;;9.18;6.57;;;;;;;20.54;78.10;99735.97;4469942;32;34769;-84
2022/08/24 02:27:32;;;;;;;9.35;6.82;;;;;;;20.75;77.02;99740.97;4455612;32;32520;-69
2022/08/24 02:29:59;;;;;;;9.82;6.93;;;;;;;20.78;76.58;99737.59;4469744;32;33749;-81
2022/08/24 02:32:27;;;;;;;10.35;7.82;;;;;;;20.48;77.68;99740.81;4455965;32;33496;-83
2022/08/24 02:34:54;;;;;;;11.68;7.37;;;;;;;20.42;78.25;99739.31;4469798;32;34542;-81
2022/08/24 02:37:22;;;;;;;10.88;7.82;;;;;;;20.76;76.76;99740.66;4469936;32;34271;-70
2022/08/24 02:39:51;;;;;;;12.05;8.15;;;;;;;20.52;77.69;99740.16;4469679;32;34700;-70
2022/08/24 02:42:18;;;;;;;11.18;8.00;;;;;;;20.31;78.97;99745.41;4468717;32;33427;-70
2022/08/24 02:44:46;;;;;;;11.52;7.70;;;;;;;20.24;79.40;99743.91;4469924;32;35068;-69
2022/08/24 02:47:16;;;;;;;10.88;7.95;;;;;;;20.34;78.92;99744.75;4470165;32;34992;-71
2022/08/24 02:49:43;;;;;;;10.85;7.85;;;;;;;20.33;78.90;99743.94;4469772;32;33542;-69
2022/08/24 02:52:11;;;;;;;11.40;7.93;;;;;;;20.68;77.28;99746.94;4455700;32;33601;-69
2022/08/24 02:54:40;;;;;;;12.32;8.57;;;;;;;20.67;77.04;99740.63;4456024;32;33841;-71
2022/08/24 02:57:08;;;;;;;11.07;7.87;;;;;;;20.57;77.46;99740.88;4456204;32;34262;-85
2022/08/24 02:59:35;;;;;;;11.88;8.60;;;;;;;20.65;77.43;99742.87;4469697;32;34528;-84
2022/08/24 03:02:04;;;;;;;11.95;8.63;;;;;;;20.69;77.24;99745.78;4468555;32;33547;-70
2022/08/24 03:04:32;;;;;;;12.02;8.55;;;;;;;20.13;80.26;99745.28;4469000;32;33804;-70
2022/08/24 03:06:59;;;;;;;12.37;8.63;;;;;;;20.03;80.48;99740.81;4469663;32;35102;-84
2022/08/24 03:09:27;;;;;;;13.18;8.93;;;;;;;20.62;77.48;99746.25;4469538;32;33958;-70
2022/08/24 03:11:56;;;;;;;12.45;9.00;;;;;;;20.46;78.10;99745.00;4468622;32;33528;-70
2022/08/24 03:14:24;;;;;;;12.20;8.77;;;;;;;20.52;78.22;99741.00;4454911;32;32488;-70
2022/08/24 03:16:53;;;;;;;12.77;9.02;;;;;;;20.46;78.12;99742.25;4455128;32;33796;-83
2022/08/24 03:19:21;;;;;;;17.23;8.50;;;;;;;20.24;79.94;99737.56;4469529;32;33662;-70
2022/08/24 03:21:50;;;;;;;13.25;9.10;;;;;;;20.27;79.57;99736.94;4468887;32;34251;-80
2022/08/24 03:24:17;;;;;;;13.68;8.98;;;;;;;20.20;80.36;99736.56;4454419;32;34832;-85
2022/08/24 03:26:45;;;;;;;13.07;8.98;;;;;;;20.09;80.87;99736.00;4469015;32;34758;-71
2022/08/24 03:29:13;;;;;;;13.18;9.43;;;;;;;20.35;79.79;99741.69;4469468;32;34513;-84
2022/08/24 03:31:43;;;;;;;13.73;9.13;;;;;;;19.86;82.09;99738.72;4468331;32;34229;-85
2022/08/24 03:34:13;;;;;;;14.52;10.32;;;;;;;20.12;81.06;99737.31;4468511;32;34493;-73
2022/08/24 03:36:45;;;;;;;13.80;9.35;;;;;;;19.97;82.23;99744.81;4468871;32;34246;-71
2022/08/24 03:39:14;;;;;;;14.90;10.27;;;;;;;20.08;81.71;99743.44;4455647;32;33966;-86
2022/08/24 03:41:42;;;;;;;13.75;9.65;;;;;;;20.33;80.55;99738.44;4454545;32;33436;-76
2022/08/24 03:44:09;;;;;;;14.18;9.43;;;;;;;20.21;81.08;99743.69;4468482;32;33958;-70
2022/08/24 03:46:37;;;;;;;13.02;9.77;;;;;;;20.36;79.99;99731.47;4454691;32;34481;-86
2022/08/24 03:49:07;;;;;;;10.65;8.18;;;;;;;20.51;78.99;99733.84;4469250;32;33960;-71
2022/08/24 03:51:36;;;;;;;12.60;8.18;;;;;;;20.58;78.61;99734.25;4454408;32;34314;-83
2022/08/24 03:54:06;;;;;;;12.48;7.95;;;;;;;20.53;78.66;99733.53;4470595;32;33935;-71
2022/08/24 03:56:34;;;;;;;10.63;7.85;;;;;;;20.33;79.55;99734.87;4455356;32;35026;-73
2022/08/24 03:59:02;;;;;;;11.48;7.57;;;;;;;20.39;79.60;99730.84;4455684;32;33702;-71
2022/08/24 04:01:30;;;;;;;12.05;7.97;;;;;;;20.24;80.16;99735.63;4470029;32;33480;-71
2022/08/24 04:03:58;;;;;;;11.95;7.62;;;;;;;20.06;81.38;99740.22;4456082;32;34506;-70
2022/08/24 04:06:26;;;;;;;10.18;7.60;;;;;;;20.15;80.38;99740.28;4467615;32;35006;-71
2022/08/24 04:08:54;;;;;;;11.65;7.93;;;;;;;20.13;80.90;99739.78;4471392;32;33644;-71
2022/08/24 04:11:25;;;;;;;11.77;7.65;;;;;;;20.16;80.41;99736.38;4456866;32;32677;-71
2022/08/24 04:13:58;;;;;;;11.80;7.68;;;;;;;20.45;78.84;99743.38;4456724;32;33886;-71
2022/08/24 04:16:28;;;;;;;11.88;7.50;;;;;;;20.20;80.46;99740.13;4457262;32;34189;-86
2022/08/24 04:18:57;;;;;;;12.35;8.38;;;;;;;20.44;78.99;99744.50;4470984;32;33760;-71
2022/08/24 04:21:31;;;;;;;10.20;7.65;;;;;;;20.54;78.33;99744.25;4456940;32;33299;-69
2022/08/24 04:24:03;;;;;;;12.13;7.70;;;;;;;20.41;79.51;99745.94;4457181;32;34627;-70
2022/08/24 04:26:31;;;;;;;15.50;8.30;;;;;;;20.47;78.84;99746.62;4457024;32;34125;-71
2022/08/24 04:29:14;;;;;;;12.70;8.57;;;;;;;19.89;82.69;99737.28;4470773;32;33754;-71
2022/08/24 04:31:42;;;;;;;11.07;7.78;;;;;;;20.23;80.75;99739.50;4443861;32;31888;-88
2022/08/24 04:34:11;;;;;;;13.13;8.50;;;;;;;19.88;82.58;99735.69;4457127;32;34915;-68
2022/08/24 04:36:41;;;;;;;11.05;7.47;;;;;;;20.23;81.07;99739.50;4456516;32;34161;-70
2022/08/24 04:39:08;;;;;;;13.32;8.00;;;;;;;20.17;81.27;99743.53;4443717;32;32415;-78
2022/08/24 04:41:36;;;;;;;12.68;7.60;;;;;;;20.21;80.68;99735.44;4470985;32;34341;-72
2022/08/24 04:44:05;;;;;;;13.05;7.93;;;;;;;20.06;82.03;99733.87;4456555;32;34245;-84
2022/08/24 04:46:34;;;;;;;10.75;7.20;;;;;;;20.14;81.79;99735.06;4470788;32;35248;-85
2022/08/24 04:49:01;;;;;;;11.05;7.05;;;;;;;20.21;81.21;99740.94;4471019;32;33878;-85
2022/08/24 04:51:29;;;;;;;11.50;7.55;;;;;;;20.43;80.11;99742.87;4471030;32;33287;-85
2022/08/24 04:54:04;;;;;;;11.53;7.53;;;;;;;20.54;79.60;99738.75;4466561;32;33877;-88
2022/08/24 04:56:31;;;;;;;10.82;7.10;;;;;;;20.56;79.02;99741.16;4466752;32;33831;-92
2022/08/24 04:58:59;;;;;;;11.82;7.97;;;;;;;20.10;81.42;99756.09;4466431;32;34231;-86
2022/08/24 05:01:28;;;;;;;10.88;7.47;;;;;;;20.15;81.46;99743.03;4455421;32;33554;-84
2022/08/24 05:03:56;;;;;;;12.82;7.97;;;;;;;20.75;78.27;99750.06;4454919;32;34817;-77
2022/08/24 05:06:26;;;;;;;9.73;7.25;;;;;;;20.87;77.88;99746.72;4469305;32;33967;-75
2022/08/24 05:08:56;;;;;;;10.48;6.97;;;;;;;20.79;78.56;99748.28;4455646;32;34664;-76
2022/08/24 05:11:25;;;;;;;11.30;7.40;;;;;;;21.01;77.84;99739.12;4469540;32;33500;-90
2022/08/24 05:13:54;;;;;;;10.52;7.18;;;;;;;21.03;78.20;99741.56;4468390;32;34093;-75
2022/08/24 05:16:24;;;;;;;11.73;7.47;;;;;;;21.53;75.98;99734.91;4455295;32;34969;-89
2022/08/24 05:18:53;;;;;;;10.57;7.40;;;;;;;21.28;76.31;99731.78;4455379;32;33970;-75
2022/08/24 05:21:22;;;;;;;10.30;7.28;;;;;;;21.41;75.58;99741.87;4455557;32;33585;-75
2022/08/24 05:23:51;;;;;;;11.85;7.47;;;;;;;21.60;74.90;99738.03;4455676;32;33992;-76
2022/08/24 05:26:23;;;;;;;11.65;7.37;;;;;;;21.63;74.03;99746.47;4469399;32;35082;-75
2022/08/24 05:28:55;;;;;;;10.00;6.80;;;;;;;22.08;72.66;99739.84;4455012;32;34681;-78
2022/08/24 05:31:26;;;;;;;9.57;6.70;;;;;;;22.24;72.85;99751.22;4469249;32;33545;-80
2022/08/24 05:33:54;;;;;;;9.75;6.55;;;;;;;22.34;72.27;99755.59;4455344;32;33842;-83
2022/08/24 05:36:28;;;;;;;8.15;5.72;;;;;;;22.23;72.60;99758.69;4469443;32;34282;-76
2022/08/24 05:38:57;;;;;;;9.90;6.67;;;;;;;22.63;70.92;99760.41;4468972;32;33943;-76
2022/08/24 05:41:25;;;;;;;9.40;6.55;;;;;;;22.85;70.83;99759.38;4469350;32;34387;-76
2022/08/24 05:43:53;;;;;;;9.27;5.97;;;;;;;23.28;67.44;99755.63;4468112;32;33936;-76
2022/08/24 05:46:21;;;;;;;9.02;5.95;;;;;;;23.08;68.71;99754.44;4453963;32;35068;-82
2022/08/24 05:48:49;;;;;;;9.00;5.78;;;;;;;23.01;69.26;99752.19;4454307;32;34675;-88
2022/08/24 05:51:20;;;;;;;9.50;6.18;;;;;;;23.58;65.90;99748.13;4454626;32;32859;-75
2022/08/24 05:53:50;;;;;;;8.65;5.78;;;;;;;23.32;67.20;99748.28;4469061;32;34707;-87
2022/08/24 05:56:18;;;;;;;8.48;5.97;;;;;;;23.49;66.67;99752.91;4469011;32;34229;-77
2022/08/24 05:58:46;;;;;;;9.75;6.05;;;;;;;23.34;68.60;99744.03;4446698;32;33501;-85
2022/08/24 06:01:23;;;;;;;8.00;5.32;;;;;;;23.15;68.85;99751.94;4454677;32;34128;-75
2022/08/24 06:03:52;;;;;;;9.05;5.57;;;;;;;23.81;66.82;99742.31;4468106;32;34004;-83
2022/08/24 06:06:21;;;;;;;7.00;5.18;;;;;;;24.43;63.23;99741.41;4455662;32;34165;-92
2022/08/24 06:08:50;;;;;;;6.93;4.87;;;;;;;24.37;64.97;99734.47;4455817;32;33746;-90
2022/08/24 06:11:38;;;;;;;7.78;5.53;;;;;;;24.88;62.24;99748.13;4470090;32;34221;-84
2022/08/24 06:14:09;;;;;;;7.12;5.20;;;;;;;24.26;64.25;99741.59;4466702;32;33855;-82
2022/08/24 06:16:43;;;;;;;9.20;5.07;;;;;;;24.73;63.39;99742.09;4469499;32;34235;-75
2022/08/24 06:19:13;;;;;;;7.12;4.82;;;;;;;24.83;63.47;99743.59;4455766;32;34554;-79
2022/08/24 06:21:42;;;;;;;6.43;5.00;;;;;;;25.21;61.53;99750.84;4455896;32;34571;-84
2022/08/24 06:24:10;;;;;;;7.37;4.87;;;;;;;24.43;62.75;99746.97;4466592;32;34838;-69
2022/08/24 06:29:23;;;;;;;7.28;4.90;;;;;;;23.98;65.88;99750.47;4469696;32;34586;-81
2022/08/24 06:31:52;;;;;;;6.50;4.43;;;;;;;24.16;64.30;99751.94;4454955;32;33456;-70
2022/08/24 06:34:23;;;;;;;5.82;4.05;;;;;;;24.40;65.11;99747.63;4455643;32;33765;-70
2022/08/24 06:36:51;;;;;;;5.45;4.07;;;;;;;24.41;63.87;99752.03;4468354;32;34162;-70
2022/08/24 06:39:20;;;;;;;5.47;4.05;;;;;;;24.39;64.36;99759.88;4469146;32;34683;-83
2022/08/24 06:41:48;;;;;;;6.32;4.37;;;;;;;24.95;62.76;99762.25;4455022;32;33387;-69
2022/08/24 06:44:17;;;;;;;5.60;4.07;;;;;;;25.12;61.57;99767.59;4468994;32;34081;-84
2022/08/24 06:46:45;;;;;;;7.28;4.20;;;;;;;24.78;63.45;99754.94;4469130;32;33675;-69
2022/08/24 06:49:13;;;;;;;7.00;4.20;;;;;;;25.50;61.38;99760.88;4469423;32;33800;-69
2022/08/24 06:51:40;;;;;;;6.03;4.07;;;;;;;24.42;63.90;99755.63;4469017;32;33438;-68
2022/08/24 06:54:09;;;;;;;5.65;4.00;;;;;;;24.89;63.34;99760.84;4468915;32;34658;-71
2022/08/24 06:56:37;;;;;;;5.93;4.10;;;;;;;25.03;64.03;99766.06;4455348;32;34140;-84
2022/08/24 06:59:05;;;;;;;4.95;3.70;;;;;;;25.09;62.45;99759.94;4469425;32;33709;-79
2022/08/24 07:01:32;;;;;;;4.80;3.65;;;;;;;25.18;62.13;99763.41;4463419;32;33415;-70
2022/08/24 07:04:00;;;;;;;4.90;3.47;;;;;;;25.10;61.40;99764.34;4462521;32;33928;-68
2022/08/24 07:06:35;;;;;;;4.55;3.42;;;;;;;25.78;60.27;99765.69;4451515;32;34248;-69
2022/08/24 07:09:04;;;;;;;5.80;4.00;;;;;;;25.76;59.87;99760.47;4467700;32;34009;-70
2022/08/24 07:11:33;;;;;;;5.62;3.83;;;;;;;25.39;62.04;99765.28;4453337;32;34339;-70
2022/08/24 07:14:01;;;;;;;5.12;3.53;;;;;;;25.45;62.02;99776.97;4453740;32;33303;-72
2022/08/24 07:16:29;;;;;;;5.57;3.50;;;;;;;25.68;60.27;99786.47;4467389;32;34223;-69
2022/08/24 07:18:57;;;;;;;6.10;3.85;;;;;;;25.49;61.24;99784.28;4438675;32;33619;-70
2022/08/24 07:21:27;;;;;;;5.57;4.07;;;;;;;25.33;61.41;99794.44;4451070;32;34440;-70
2022/08/24 07:23:56;;;;;;;5.00;4.00;;;;;;;25.03;60.80;99793.81;4452198;32;33937;-73
2022/08/24 07:26:26;;;;;;;6.40;3.58;;;;;;;24.91;62.20;99794.63;4450218;32;33982;-78
2022/08/24 07:29:04;;;;;;;4.65;3.40;;;;;;;24.89;62.65;99789.41;4450993;32;33445;-85
2022/08/24 07:31:33;;;;;;;5.57;4.07;;;;;;;25.21;62.92;99797.25;4448002;32;34244;-69
2022/08/24 07:34:05;;;;;;;4.70;2.90;;;;;;;25.23;62.22;99792.94;4438786;32;34698;-69
2022/08/24 07:36:33;;;;;;;6.28;3.67;;;;;;;25.96;60.11;99803.22;4450168;32;34359;-69
2022/08/24 07:39:02;;;;;;;5.70;3.58;;;;;;;26.04;60.63;99808.97;4450387;32;33970;-87
2022/08/24 07:41:30;;;;;;;4.82;3.05;;;;;;;25.85;60.06;99809.56;4450460;32;33564;-75
2022/08/24 07:44:18;;;;;;;6.07;3.78;;;;;;;26.11;59.43;99811.97;4450934;32;34834;-70
2022/08/24 07:46:45;;;;;;;5.12;2.85;;;;;;;25.94;58.39;99807.50;4452235;32;34882;-77
2022/08/24 07:49:13;;;;;;;4.15;2.70;;;;;;;24.60;60.84;99814.53;4451672;32;33960;-69
2022/08/24 07:52:00;;;;;;;3.08;2.30;;;;;;;24.67;59.03;99807.28;4448751;32;33825;-83
2022/08/24 07:54:28;;;;;;;3.03;2.22;;;;;;;25.46;60.45;99814.69;4451370;32;33792;-75
2022/08/24 07:56:58;;;;;;;3.08;2.30;;;;;;;25.60;57.93;99806.03;4451378;32;35967;-75
2022/08/24 07:59:26;;;;;;;3.42;2.30;;;;;;;25.81;57.23;99814.22;4449463;32;34189;-73
2022/08/24 08:01:54;;;;;;;4.45;2.62;;;;;;;25.16;58.73;99815.72;4443291;32;33516;-81
2022/08/24 08:04:24;;;;;;;3.33;2.20;;;;;;;24.98;59.58;99815.09;4446340;32;33940;-77
2022/08/24 08:06:52;;;;;;;5.32;2.47;;;;;;;25.13;60.17;99821.13;4435130;32;35097;-78
2022/08/24 08:09:20;;;;;;;3.05;2.42;;;;;;;25.23;57.12;99814.38;4437176;32;34004;-73
2022/08/24 08:11:48;;;;;;;4.62;2.42;;;;;;;24.70;59.28;99819.66;4450759;32;33015;-80
2022/08/24 08:14:16;;;;;;;4.75;2.87;;;;;;;24.76;60.51;99819.09;4451340;32;33738;-74
2022/08/24 08:16:44;;;;;;;4.72;2.80;;;;;;;24.52;61.65;99822.59;4449269;32;34997;-87
2022/08/24 08:19:12;;;;;;;4.25;2.75;;;;;;;24.72;60.75;99826.47;4436283;32;33663;-83
2022/08/24 08:24:32;;;;;;;4.53;2.90;;;;;;;25.11;60.02;99832.56;4466899;32;33876;-74
2022/08/24 08:27:00;;;;;;;4.90;2.85;;;;;;;25.48;57.95;99831.84;4466827;32;34295;-74
2022/08/24 08:29:30;;;;;;;4.22;3.08;;;;;;;25.15;58.71;99821.59;4466470;32;35031;-73
2022/08/24 08:31:59;;;;;;;5.05;2.92;;;;;;;24.90;60.15;99824.34;4453117;32;33637;-74
2022/08/24 08:34:28;;;;;;;3.70;2.92;;;;;;;24.80;60.48;99823.97;4450722;32;34988;-73
2022/08/24 08:36:57;;;;;;;4.18;2.80;;;;;;;25.28;58.75;99828.81;4448883;32;34152;-72
2022/08/24 08:39:26;;;;;;;4.47;2.78;;;;;;;23.99;62.11;99835.22;4467647;32;33945;-80
2022/08/24 08:42:01;;;;;;;3.72;2.78;;;;;;;24.58;62.00;99841.78;4453559;32;33341;-73
2022/08/24 08:44:42;;;;;;;3.55;2.40;;;;;;;24.68;61.03;99838.59;4466704;32;33736;-73
2022/08/24 08:47:30;;;;;;;4.15;2.90;;;;;;;24.62;61.25;99834.41;4453637;32;35020;-70
2022/08/24 08:50:06;;;;;;;4.07;2.47;;;;;;;24.83;60.80;99837.94;4468409;32;34003;-72
2022/08/24 08:52:56;;;;;;;4.30;2.80;;;;;;;25.09;59.25;99840.44;4469188;32;33654;-75
2022/08/24 08:55:36;;;;;;;4.12;2.72;;;;;;;25.06;60.23;99840.34;4469404;32;33986;-78
2022/08/24 08:58:16;;;;;;;3.87;2.60;;;;;;;25.22;61.26;99837.72;4454930;32;34690;-74
2022/08/24 09:00:47;;;;;;;3.50;2.85;;;;;;;25.24;59.36;99830.66;4457131;32;33964;-74
2022/08/24 09:03:27;;;;;;;3.87;2.78;;;;;;;25.45;59.10;99836.13;4470665;32;33567;-75
2022/08/24 09:06:21;;;;;;;4.10;3.10;;;;;;;25.55;58.59;99837.59;4457041;32;33187;-85
2022/08/24 09:09:04;;;;;;;3.85;2.70;;;;;;;25.62;57.77;99842.63;4456597;32;34183;-74
2022/08/24 09:11:47;;;;;;;3.53;2.30;;;;;;;25.96;57.92;99835.75;4470739;32;33994;-74
2022/08/24 09:14:46;;;;;;;4.62;2.72;;;;;;;26.16;55.82;99839.56;4456545;32;33500;-74
2022/08/24 09:17:39;;;;;;;3.67;2.60;;;;;;;25.99;56.44;99838.66;4470426;32;34154;-75
2022/08/24 09:20:24;;;;;;;3.75;2.58;;;;;;;26.10;56.07;99840.94;4470007;32;34322;-74
2022/08/24 09:23:28;;;;;;;5.78;2.55;;;;;;;26.38;56.97;99830.66;4470340;32;33998;-84
2022/08/24 09:26:33;;;;;;;5.85;2.25;;;;;;;26.85;55.12;99833.97;4442293;32;33233;-74
2022/08/24 09:29:39;;;;;;;4.53;2.70;;;;;;;26.54;55.17;99830.72;4433247;32;33784;-75
2022/08/24 09:32:27;;;;;;;4.30;2.40;;;;;;;26.84;54.11;99835.13;4452819;32;34139;-85
2022/08/24 09:34:59;;;;;;;4.18;2.50;;;;;;;26.89;55.15;99832.06;4456246;32;33548;-74
2022/08/24 09:37:32;;;;;;;3.65;2.10;;;;;;;27.08;51.81;99834.16;4470217;32;34417;-85
2022/08/24 09:40:21;;;;;;;4.87;2.65;;;;;;;27.31;51.89;99826.03;4456269;32;34695;-73
2022/08/24 09:43:21;;;;;;;3.53;2.33;;;;;;;27.16;52.20;99824.84;4470278;32;34885;-74
2022/08/24 09:46:13;;;;;;;4.85;1.90;;;;;;;27.32;52.50;99830.44;4453062;32;35002;-73
2022/08/24 09:49:18;;;;;;;5.43;2.30;;;;;;;27.07;51.79;99824.22;4454358;32;33768;-72
2022/08/24 09:52:17;;;;;;;8.55;2.30;;;;;;;26.68;50.63;99821.97;4458927;32;33673;-70
2022/08/24 09:54:54;;;;;;;3.22;2.10;;;;;;;26.23;51.29;99811.94;4469951;32;34191;-71
2022/08/24 09:57:43;;;;;;;5.40;2.42;;;;;;;26.10;52.32;99813.16;4469860;32;34628;-69
2022/08/24 10:00:38;;;;;;;7.10;2.62;;;;;;;26.52;50.98;99809.97;4457695;32;34166;-72
2022/08/24 10:03:32;;;;;;;5.10;2.72;;;;;;;26.30;52.63;99800.22;4456057;32;34029;-70
2022/08/24 10:06:17;;;;;;;5.30;2.17;;;;;;;26.64;51.16;99798.81;4470199;32;34196;-69
2022/08/24 10:09:00;;;;;;;3.30;2.30;;;;;;;26.77;51.87;99810.69;4470081;32;33833;-68
2022/08/24 10:11:48;;;;;;;3.00;2.10;;;;;;;26.46;52.03;99805.81;4470575;32;33512;-74
2022/08/24 10:14:49;;;;;;;4.85;2.87;;;;;;;26.89;51.42;99807.84;4470376;32;34059;-75
2022/08/24 10:17:27;;;;;;;2.70;2.20;;;;;;;26.59;51.16;99805.44;4456049;32;34096;-82
2022/08/24 10:20:13;;;;;;;5.15;2.42;;;;;;;26.72;50.67;99806.19;4442937;32;33170;-74
2022/08/24 10:23:24;;;;;;;2.70;2.10;;;;;;;26.47;51.21;99805.47;4470139;32;33385;-84
2022/08/24 10:26:01;;;;;;;3.00;2.03;;;;;;;27.00;50.28;99806.12;4443208;32;34092;-85
2022/08/24 10:29:07;;;;;;;4.85;2.42;;;;;;;27.37;49.24;99810.66;4455919;32;33642;-74
2022/08/24 10:31:46;;;;;;;4.60;2.58;;;;;;;26.53;50.43;99804.06;4469772;32;34650;-82
2022/08/24 10:34:19;;;;;;;3.05;2.37;;;;;;;27.00;49.85;99810.91;4470125;32;33242;-76
2022/08/24 10:36:56;;;;;;;4.20;2.60;;;;;;;26.97;50.88;99815.19;4469929;32;33842;-75
2022/08/24 10:39:44;;;;;;;4.03;2.47;;;;;;;26.99;51.06;99817.63;4469971;32;34969;-77
2022/08/24 10:45:16;;;;;;;4.37;2.70;;;;;;;26.86;50.66;99825.25;4469864;32;33650;-77
2022/08/24 10:48:04;;;;;;;3.60;2.75;;;;;;;27.17;50.28;99813.34;4456025;32;33946;-75
2022/08/24 10:50:40;;;;;;;5.12;2.70;;;;;;;26.94;50.21;99815.91;4455295;32;33408;-85
2022/08/24 10:53:19;;;;;;;5.12;2.58;;;;;;;27.14;50.64;99816.03;4469764;32;34030;-75
2022/08/24 10:55:55;;;;;;;3.95;2.60;;;;;;;27.07;51.65;99813.88;4469848;32;33435;-84
2022/08/24 10:58:48;;;;;;;4.62;2.50;;;;;;;27.20;50.63;99818.19;4455640;32;34641;-75
2022/08/24 11:01:21;;;;;;;5.57;2.83;;;;;;;26.72;52.24;99813.75;4468931;32;33903;-75
2022/08/24 11:04:12;;;;;;;4.03;2.55;;;;;;;26.59;52.13;99813.00;4468554;32;34879;-75
2022/08/24 11:06:43;;;;;;;4.85;3.03;;;;;;;26.46;53.61;99817.78;4454705;32;34013;-74
2022/08/24 11:09:14;;;;;;;4.70;3.00;;;;;;;26.78;52.56;99818.69;4441632;32;33277;-75
2022/08/24 11:11:48;;;;;;;6.68;3.15;;;;;;;26.77;52.97;99821.81;4455017;32;33986;-74
2022/08/24 11:14:25;;;;;;;5.62;2.65;;;;;;;26.44;53.74;99819.28;4454542;32;34060;-75
2022/08/24 11:17:13;;;;;;;5.72;3.20;;;;;;;26.78;51.56;99815.91;4451668;32;33665;-73
2022/08/24 11:19:41;;;;;;;7.37;3.60;;;;;;;26.37;52.65;99809.59;4440789;32;75294;-67
2022/08/24 11:22:35;;;;;;;4.75;3.30;;;;;;;26.68;54.55;99819.19;4467999;32;35033;-71
2022/08/24 11:25:27;;;;;;;6.30;4.13;;;;;;;26.12;55.23;99817.19;4468331;32;34695;-68
2022/08/24 11:28:24;;;;;;;6.80;3.50;;;;;;;26.36;60.23;99821.06;4468423;32;33327;-69
2022/08/24 11:30:51;;;;;;;6.20;3.58;;;;;;;26.48;62.17;99826.56;4454553;32;33952;-68
2022/08/24 11:33:29;;;;;;;7.40;4.10;;;;;;;26.93;62.13;99828.25;4466593;32;34171;-68
2022/08/24 11:35:56;;;;;;;4.68;3.53;;;;;;;27.03;62.35;99820.50;4453871;32;34172;-69
2022/08/24 11:38:30;;;;;;;7.05;4.20;;;;;;;27.13;62.13;99820.78;4467980;32;33776;-81
2022/08/24 11:41:25;;;;;;;8.97;4.43;;;;;;;26.87;63.08;99829.66;4454069;32;34074;-69
2022/08/24 11:44:36;;;;;;;5.72;4.20;;;;;;;26.65;66.18;99839.38;4452557;32;34075;-87
2022/08/24 11:47:09;;;;;;;5.82;3.50;;;;;;;26.07;68.58;99833.28;4467527;32;33978;-87
2022/08/24 11:50:16;;;;;;;6.12;4.68;;;;;;;26.01;69.73;99824.41;4467707;32;33381;-68
2022/08/24 11:52:58;;;;;;;6.95;5.28;;;;;;;26.30;67.50;99833.59;4444026;32;33484;-84
2022/08/24 11:55:30;;;;;;;6.45;4.78;;;;;;;25.85;63.84;99834.59;4453828;32;34749;-69
2022/08/24 11:58:22;;;;;;;8.27;5.55;;;;;;;25.68;66.35;99839.25;4455591;32;33708;-68
2022/08/24 12:01:35;;;;;;;6.97;5.12;;;;;;;25.51;67.20;99831.97;4468116;32;33575;-84
2022/08/24 12:04:35;;;;;;;6.30;4.60;;;;;;;25.12;67.32;99825.06;4467555;32;33938;-71
2022/08/24 12:07:27;;;;;;;7.37;4.65;;;;;;;23.55;73.66;99831.88;4453686;32;34708;-68
2022/08/24 12:10:09;;;;;;;4.85;3.80;;;;;;;23.54;74.97;99833.84;4467747;32;34034;-69
2022/08/24 12:13:28;;;;;;;3.62;2.55;;;;;;;24.41;70.27;99846.31;4452179;32;33104;-78
2022/08/24 12:16:08;;;;;;;6.35;3.08;;;;;;;24.41;68.11;99860.19;4435118;32;34294;-80